LHBD (Börgönd) - 119.550 - ALBA INFO - 01 LH, 19 RH - 10km SE Székesfehérvár - DROPZONE +3670624884

Élőkép

Információk

Albatrosz Repülő Egyesület
8000 Székesfehérvár,
Radványi utca 6.

Adószám:
19092908-2-07

Bankszámla szám:
Budapest Bank
10102952-01361819-00000001

Telefon: +36 30 9598-897

Drop-Zone: +36 70 624-8884

Telephey: Börgönd repülőtér

Börgöndi repülõtér

LHBP METAR/TAF

[source: ADDS]
METAR
TAF LHBP 031700Z 0318/0418 08006KT CAVOK BECMG 0318/0320 VRB03KT BECMG 0408/0411 17007KT SCT045 TEMPO 0415/0418 VRB20G32KT -SHRA -TSRA SCT040CB BKN055 TAF
TAF LHBP 031700Z 0318/0418 08006KT CAVOK BECMG 0318/0320 VRB03KT BECMG 0408/0411 17007KT SCT045 TEMPO 0415/0418 VRB20G32KT -SHRA -TSRA SCT040CB BKN055 =
SR / SS: 03:30 / 18:18 UTC (Börgönd 2015-08-03)
Hungarian Chinese (Simplified) Croatian Czech English Finnish French German Hebrew Italian Japanese Polish Portuguese Romanian Russian Serbian Slovak Slovenian Spanish

Belépés tagoknak